Airfield :
LOGIN :

Register | Disclaimer

   EN    FR    IT 

 










Legend :    VFR   Marginal VFR   IFR   Intensive IFR   Very Intensive IFR
Visi :
Ceiling :
>= 8 km
>= 3000ft
5 to 8 km
1000 to 3000 ft
1500m to 5 km
500 to 1000 ft
800 to 1500m
200 to 500 ft
< 800m
< 200 ft
Symbols :   Thunderstorms  Fog  Heavy snow  Heavy precipitations  Wind > 20 kt
SIGMETs :     Misc.  Thunderstorms  Icing  Turbulence  Mountain Waves  Volcanic Ashes







- Airport Elevation : 1487 ft
- IATA code : MUC


EDDM - München Franz Josef Strauss

CURRENT METAR :
  • 241020Z 28011KT 250V310 9999 SCT036 SCT290 19/09 Q1019 NOSIG

EXPIRED METARs :
  • 240950Z 27010KT 240V310 9999 SCT032 18/10 Q1019 NOSIG
  • 240920Z 26010KT 230V290 9999 SCT025 SCT290 17/11 Q1020 NOSIG
  • 240850Z 26010KT 9999 SCT022 SCT290 17/11 Q1020 NOSIG
  • 240820Z 28009KT 9999 SCT020 SCT290 17/12 Q1020 NOSIG
  • 240750Z 27006KT 240V300 9999 SCT017 15/11 Q1020 NOSIG

TAF TAF EDDM
Valid from the 24 at 06:00 until the 25 at 12:00 UTC


240500Z 2406/2512 25005KT 9999 SCT030
BECMG 2406/2408 26010KT
BECMG 2417/2419 23004KT
BECMG 2506/2508 25010KT
BECMG 2508/2510 25015G25KT
BECMG 2510/2512 26020G35KT
No reported NOTAMs for that airfield.



MET'MAP, your aeronautical weather chart ! - Copyright ORBIFLY December 2007 - Disclaimer

ORBIFLY MET'MAP TEAM :

Programming & Development : Alexandra Zaïnal
Concept & Development : Baudouin d'Aumeries
Co-Development & Prog : Marc-Olivier Méhu
Technical & hardware support : Manuel Goepfert

Contact : metmap@orbifly.com




SOURCES & CREDITS :

   NOAA